Time;durP1;ratioP1;P1;durP2;ratioP2;P2;SDS_P1;SDS_P2;PMS_P1;PMS_P2;Temp;Humidity;BMP_temperature;BMP_pressure;BME280_temperature;BME280_humidity;BME280_pressure;Samples;Min_cycle;Max_cycle;Signal;HPM_P1;HPM_P2
2023/01/19 00:00:26;;;;;;;31.70;18.27;;;-0.90;99.90;;;;;;5035325;28;20033;-70
2023/01/19 00:02:53;;;;;;;23.65;19.20;;;-0.80;99.90;;;;;;5038675;28;20276;-70
2023/01/19 00:05:20;;;;;;;18.98;16.98;;;-0.80;99.90;;;;;;5032929;28;20419;-70
2023/01/19 00:07:47;;;;;;;24.50;19.27;;;-0.80;99.90;;;;;;5035764;28;20048;-69
2023/01/19 00:10:14;;;;;;;21.20;17.92;;;-0.80;99.90;;;;;;5032014;28;20049;-70
2023/01/19 00:12:41;;;;;;;22.40;16.88;;;-0.70;99.90;;;;;;5040306;28;20067;-70
2023/01/19 00:15:08;;;;;;;22.00;17.50;;;-0.70;99.90;;;;;;5030485;28;20064;-70
2023/01/19 00:17:34;;;;;;;20.00;17.83;;;-0.70;99.90;;;;;;5035302;28;20054;-70
2023/01/19 00:20:02;;;;;;;23.45;18.70;;;-0.70;99.90;;;;;;5036158;28;20060;-70
2023/01/19 00:22:29;;;;;;;27.15;18.98;;;-0.70;99.90;;;;;;5033461;28;20041;-70
2023/01/19 00:24:56;;;;;;;22.08;18.13;;;-0.70;99.90;;;;;;5015606;28;20269;-69
2023/01/19 00:27:23;;;;;;;20.85;17.10;;;-0.70;99.90;;;;;;5031693;28;20698;-70
2023/01/19 00:29:50;;;;;;;22.13;18.70;;;-0.70;99.90;;;;;;5036203;28;20236;-70
2023/01/19 00:32:18;;;;;;;19.83;17.35;;;-0.70;99.90;;;;;;5027323;28;20540;-70
2023/01/19 00:34:48;;;;;;;23.85;18.67;;;-0.60;99.90;;;;;;5034065;28;20049;-70
2023/01/19 00:37:16;;;;;;;22.42;17.92;;;-0.60;99.90;;;;;;5032144;28;20043;-70
2023/01/19 00:39:43;;;;;;;22.20;17.83;;;-0.50;99.90;;;;;;5034181;28;20080;-69
2023/01/19 00:44:56;;;;;;;20.20;18.08;;;-0.50;99.90;;;;;;5031798;28;20518;-69
2023/01/19 00:47:24;;;;;;;21.65;17.23;;;-0.30;99.90;;;;;;5036132;28;20060;-69
2023/01/19 00:49:50;;;;;;;19.25;17.35;;;-0.20;99.90;;;;;;5037262;28;20132;-70
2023/01/19 00:52:17;;;;;;;19.85;17.50;;;-0.10;99.90;;;;;;5037291;28;20079;-70
2023/01/19 00:54:44;;;;;;;19.80;17.73;;;0.00;99.90;;;;;;5028943;28;20037;-70
2023/01/19 00:57:11;;;;;;;23.65;19.00;;;0.10;99.90;;;;;;5033803;28;20049;-70
2023/01/19 00:59:38;;;;;;;18.98;17.10;;;0.20;99.90;;;;;;5034322;28;20546;-69
2023/01/19 01:02:04;;;;;;;22.35;18.73;;;0.20;99.90;;;;;;5031693;28;20114;-70
2023/01/19 01:04:31;;;;;;;22.10;19.45;;;0.30;99.90;;;;;;5033747;28;20041;-69
2023/01/19 01:06:58;;;;;;;20.98;18.95;;;0.30;99.90;;;;;;5036306;28;20044;-69
2023/01/19 01:09:25;;;;;;;21.67;19.17;;;0.30;99.90;;;;;;5026107;28;20055;-70
2023/01/19 01:11:52;;;;;;;23.38;20.15;;;0.30;99.90;;;;;;5035352;28;20037;-70
2023/01/19 01:14:19;;;;;;;21.85;18.65;;;0.30;99.90;;;;;;5030689;28;20041;-70
2023/01/19 01:16:45;;;;;;;21.33;19.02;;;0.30;99.90;;;;;;5056916;28;20043;-70
2023/01/19 01:19:12;;;;;;;22.60;20.30;;;0.30;99.90;;;;;;5035468;28;20033;-70
2023/01/19 01:21:39;;;;;;;24.48;19.45;;;0.40;99.90;;;;;;5034015;28;20037;-70
2023/01/19 01:24:06;;;;;;;25.73;21.25;;;0.40;99.90;;;;;;5032639;28;20108;-69
2023/01/19 01:26:33;;;;;;;24.40;20.00;;;0.40;99.90;;;;;;5032466;28;20583;-69
2023/01/19 01:29:00;;;;;;;24.95;19.83;;;0.30;99.90;;;;;;5036307;28;20045;-70
2023/01/19 01:31:27;;;;;;;25.27;20.33;;;0.30;99.90;;;;;;5032498;28;20334;-70
2023/01/19 01:33:53;;;;;;;24.98;19.95;;;0.20;99.90;;;;;;5034916;28;20044;-69
2023/01/19 01:36:20;;;;;;;22.20;19.80;;;0.10;99.90;;;;;;5030937;28;20064;-69
2023/01/19 01:38:47;;;;;;;23.20;18.98;;;0.10;99.90;;;;;;5033254;28;20399;-70
2023/01/19 01:41:13;;;;;;;19.92;17.77;;;0.00;99.90;;;;;;5031367;28;20514;-69
2023/01/19 01:43:42;;;;;;;23.73;20.10;;;0.00;99.90;;;;;;5033630;28;20585;-69
2023/01/19 01:46:09;;;;;;;20.63;18.35;;;-0.10;99.90;;;;;;5011906;28;20086;-69
2023/01/19 01:48:38;;;;;;;24.20;19.00;;;-0.10;99.90;;;;;;5033560;28;20696;-70
2023/01/19 01:51:23;;;;;;;23.73;17.98;;;-0.20;99.90;;;;;;5027079;28;20037;-69
2023/01/19 01:54:26;;;;;;;21.05;18.83;;;-0.20;99.90;;;;;;5031033;28;20389;-70
2023/01/19 01:56:56;;;;;;;22.17;18.48;;;-0.20;99.90;;;;;;5002229;28;20033;-69
2023/01/19 01:59:37;;;;;;;20.70;18.50;;;-0.20;99.90;;;;;;5031994;28;20048;-69
2023/01/19 02:05:06;;;;;;;22.80;18.80;;;-0.20;99.90;;;;;;5030803;28;20048;-69
2023/01/19 02:13:20;;;;;;;22.98;19.42;;;0.00;99.90;;;;;;5030989;28;20045;-70
2023/01/19 02:15:53;;;;;;;23.38;19.73;;;0.00;99.90;;;;;;5032805;28;20270;-69
2023/01/19 02:18:25;;;;;;;26.90;20.05;;;0.00;99.90;;;;;;5033227;28;20480;-70
2023/01/19 02:21:18;;;;;;;23.30;18.85;;;0.10;99.90;;;;;;5038638;28;20046;-70
2023/01/19 02:23:49;;;;;;;23.27;19.92;;;0.00;99.90;;;;;;5057680;28;20131;-69
2023/01/19 02:26:29;;;;;;;25.73;19.77;;;0.10;99.90;;;;;;5036717;28;20029;-70
2023/01/19 02:29:05;;;;;;;23.73;18.95;;;0.10;99.90;;;;;;5031289;28;20044;-69
2023/01/19 02:31:34;;;;;;;25.35;20.30;;;0.20;99.90;;;;;;5043356;28;20509;-69
2023/01/19 02:34:03;;;;;;;25.85;19.05;;;0.30;99.90;;;;;;5040506;28;20115;-69
2023/01/19 02:36:57;;;;;;;17.85;15.98;;;0.40;99.90;;;;;;5034889;28;20084;-69
2023/01/19 02:39:33;;;;;;;24.83;19.02;;;0.40;99.90;;;;;;5024054;28;20796;-69
2023/01/19 02:42:05;;;;;;;23.50;20.30;;;0.40;99.90;;;;;;5036061;28;20091;-70
2023/01/19 02:44:33;;;;;;;21.58;19.27;;;0.40;99.90;;;;;;5018907;28;20133;-70
2023/01/19 02:47:00;;;;;;;23.23;19.58;;;0.40;99.90;;;;;;5019881;28;20032;-70
2023/01/19 02:49:29;;;;;;;21.02;18.77;;;0.30;99.90;;;;;;5035364;28;20045;-69
2023/01/19 02:51:56;;;;;;;24.00;19.75;;;0.30;99.90;;;;;;5036257;28;20246;-69
2023/01/19 02:54:40;;;;;;;27.08;20.33;;;0.30;99.90;;;;;;5014946;28;20091;-70
2023/01/19 02:57:34;;;;;;;24.25;20.90;;;0.30;99.90;;;;;;5028823;28;20041;-70
2023/01/19 03:00:25;;;;;;;20.83;18.52;;;0.30;99.90;;;;;;5034528;28;20507;-70
2023/01/19 03:03:18;;;;;;;19.77;17.88;;;0.30;99.90;;;;;;5035725;28;20033;-69
2023/01/19 03:06:02;;;;;;;21.83;19.48;;;0.30;99.90;;;;;;5035819;28;20045;-70
2023/01/19 03:08:38;;;;;;;22.52;18.58;;;0.30;99.90;;;;;;5017322;28;20052;-69
2023/01/19 03:11:12;;;;;;;25.27;18.98;;;0.30;99.90;;;;;;5017020;28;20135;-69
2023/01/19 03:13:51;;;;;;;24.48;19.38;;;0.30;99.90;;;;;;5034423;28;20406;-70
2023/01/19 03:16:36;;;;;;;24.85;20.00;;;0.30;99.90;;;;;;5014975;28;20044;-70
2023/01/19 03:19:09;;;;;;;24.33;19.15;;;0.20;99.90;;;;;;5034932;28;20080;-70
2023/01/19 03:21:38;;;;;;;24.42;18.33;;;0.20;99.90;;;;;;5016679;28;20033;-70
2023/01/19 03:24:07;;;;;;;21.42;18.38;;;0.30;99.90;;;;;;5016660;28;20048;-69
2023/01/19 03:26:44;;;;;;;21.38;18.88;;;0.40;99.90;;;;;;5017167;28;20064;-69
2023/01/19 03:29:13;;;;;;;23.05;19.48;;;0.40;99.90;;;;;;5034762;28;20056;-70
2023/01/19 03:31:45;;;;;;;20.98;18.45;;;0.40;99.90;;;;;;5040470;28;20511;-70
2023/01/19 03:34:15;;;;;;;21.27;19.17;;;0.50;99.90;;;;;;5067897;22;20037;-68
2023/01/19 03:36:45;;;;;;;20.77;18.52;;;0.50;99.90;;;;;;5052821;28;20059;-67
2023/01/19 03:39:16;;;;;;;21.83;19.50;;;0.60;99.90;;;;;;5028052;28;20041;-68
2023/01/19 03:41:47;;;;;;;19.77;17.92;;;0.50;99.90;;;;;;5035802;28;20490;-68
2023/01/19 03:44:15;;;;;;;28.00;18.15;;;0.60;99.90;;;;;;5049079;28;20083;-66
2023/01/19 03:46:43;;;;;;;18.88;16.95;;;0.50;99.90;;;;;;5033996;28;20044;-67
2023/01/19 03:49:10;;;;;;;21.45;19.35;;;0.50;99.90;;;;;;5032817;28;20513;-67
2023/01/19 03:51:38;;;;;;;18.77;16.92;;;0.40;99.90;;;;;;5033786;28;20059;-67
2023/01/19 03:54:06;;;;;;;20.30;17.33;;;0.40;99.90;;;;;;5031848;28;20566;-67
2023/01/19 03:56:33;;;;;;;21.65;19.35;;;0.40;99.90;;;;;;5031343;28;20052;-67
2023/01/19 03:58:59;;;;;;;25.42;19.35;;;0.40;99.90;;;;;;5009676;28;20036;-68
2023/01/19 04:01:26;;;;;;;21.75;19.48;;;0.30;99.90;;;;;;5043335;28;20037;-68
2023/01/19 04:03:53;;;;;;;22.45;19.70;;;0.30;99.90;;;;;;5044177;28;20069;-70
2023/01/19 04:06:20;;;;;;;23.52;21.15;;;0.30;99.90;;;;;;5048773;28;20082;-66
2023/01/19 04:08:48;;;;;;;20.98;18.63;;;0.40;99.90;;;;;;5024374;28;20060;-67
2023/01/19 04:11:16;;;;;;;26.52;22.80;;;0.40;99.90;;;;;;5031120;28;20370;-67
2023/01/19 04:13:43;;;;;;;21.10;19.17;;;0.40;99.90;;;;;;5032876;28;20045;-67
2023/01/19 04:16:11;;;;;;;20.92;18.77;;;0.50;99.90;;;;;;5033277;28;20070;-68
2023/01/19 04:18:37;;;;;;;22.88;19.70;;;0.50;99.90;;;;;;5023672;28;20044;-67
2023/01/19 04:21:06;;;;;;;23.13;20.23;;;0.50;99.90;;;;;;5028372;28;20068;-68
2023/01/19 04:23:33;;;;;;;21.88;19.70;;;0.50;99.90;;;;;;5032152;28;20032;-67
2023/01/19 04:26:03;;;;;;;22.98;20.30;;;0.50;99.90;;;;;;5026605;28;20055;-68
2023/01/19 04:28:31;;;;;;;25.00;19.88;;;0.60;99.90;;;;;;5031129;28;20752;-67
2023/01/19 04:30:58;;;;;;;22.65;19.00;;;0.60;99.90;;;;;;5030019;28;20608;-67
2023/01/19 04:33:26;;;;;;;22.85;19.98;;;0.60;99.90;;;;;;5028696;28;20064;-66
2023/01/19 04:35:54;;;;;;;21.70;19.50;;;0.60;99.90;;;;;;5036829;28;20055;-68
2023/01/19 04:38:22;;;;;;;21.63;19.60;;;0.70;99.90;;;;;;5030672;28;20647;-68
2023/01/19 04:40:51;;;;;;;24.60;19.90;;;0.70;99.90;;;;;;5046394;28;20434;-68
2023/01/19 04:43:19;;;;;;;24.08;18.95;;;0.70;99.90;;;;;;5033043;28;20047;-67
2023/01/19 04:45:46;;;;;;;21.08;18.83;;;0.60;99.90;;;;;;5024471;28;20136;-67
2023/01/19 04:48:13;;;;;;;21.98;19.73;;;0.60;99.90;;;;;;5033182;28;20091;-67
2023/01/19 04:50:40;;;;;;;22.25;19.90;;;0.60;99.90;;;;;;5022697;28;20041;-68
2023/01/19 04:53:08;;;;;;;26.38;19.98;;;0.60;99.90;;;;;;5033133;28;20105;-67
2023/01/19 04:55:36;;;;;;;26.17;20.58;;;0.60;99.90;;;;;;5033400;28;20197;-70
2023/01/19 04:58:03;;;;;;;21.17;17.83;;;0.50;99.90;;;;;;5031627;28;20098;-69
2023/01/19 05:00:29;;;;;;;23.48;20.98;;;0.50;99.90;;;;;;5046020;28;20051;-67
2023/01/19 05:02:56;;;;;;;24.70;20.63;;;0.50;99.90;;;;;;5020243;28;20165;-68
2023/01/19 05:05:23;;;;;;;19.95;18.02;;;0.50;99.90;;;;;;5016248;28;20056;-67
2023/01/19 05:07:50;;;;;;;23.67;19.45;;;0.50;99.90;;;;;;5030000;28;20539;-68
2023/01/19 05:10:17;;;;;;;22.75;20.35;;;0.50;99.90;;;;;;5049748;28;20052;-67
2023/01/19 05:12:43;;;;;;;21.95;19.80;;;0.60;99.90;;;;;;5034755;28;20338;-70
2023/01/19 05:15:10;;;;;;;22.42;19.98;;;0.60;99.90;;;;;;5009630;28;20037;-68
2023/01/19 05:17:38;;;;;;;19.15;17.23;;;0.60;99.90;;;;;;5041772;28;20491;-70
2023/01/19 05:20:05;;;;;;;20.90;18.52;;;0.60;99.90;;;;;;5032840;28;20041;-70
2023/01/19 05:22:34;;;;;;;20.35;18.23;;;0.60;99.90;;;;;;5028788;28;20510;-69
2023/01/19 05:25:01;;;;;;;25.00;17.83;;;0.70;99.90;;;;;;5012103;28;20055;-69
2023/01/19 05:27:28;;;;;;;20.85;18.58;;;0.80;99.90;;;;;;5010806;28;20048;-68
2023/01/19 05:29:54;;;;;;;19.83;18.05;;;0.80;99.90;;;;;;5036006;28;20396;-69
2023/01/19 05:32:21;;;;;;;21.02;17.75;;;0.80;99.90;;;;;;5010365;28;21083;-70
2023/01/19 05:34:48;;;;;;;23.42;18.50;;;0.80;99.90;;;;;;5027842;28;20505;-70
2023/01/19 05:37:15;;;;;;;18.83;16.90;;;0.80;99.90;;;;;;5025598;28;20032;-68
2023/01/19 05:39:41;;;;;;;20.75;18.77;;;0.80;99.90;;;;;;5034067;28;20522;-69
2023/01/19 05:42:08;;;;;;;18.58;16.58;;;0.80;99.90;;;;;;5032812;28;20036;-70
2023/01/19 05:44:34;;;;;;;21.52;19.10;;;0.80;99.90;;;;;;5025041;28;21292;-69
2023/01/19 05:47:01;;;;;;;18.83;16.95;;;0.80;99.90;;;;;;5051342;28;20517;-69
2023/01/19 05:49:28;;;;;;;20.90;19.00;;;0.80;99.90;;;;;;5026231;28;20051;-69
2023/01/19 05:51:54;;;;;;;19.83;18.13;;;0.90;99.90;;;;;;5029370;28;20249;-69
2023/01/19 05:54:21;;;;;;;20.20;18.38;;;0.90;99.90;;;;;;5028903;28;20050;-67
2023/01/19 05:56:48;;;;;;;20.58;18.45;;;0.90;99.90;;;;;;5029088;28;20136;-68
2023/01/19 05:59:16;;;;;;;19.52;17.70;;;0.90;99.90;;;;;;5043503;28;20053;-70
2023/01/19 06:01:44;;;;;;;18.20;16.48;;;0.90;99.90;;;;;;5026795;28;20767;-70
2023/01/19 06:04:10;;;;;;;22.30;20.13;;;0.90;99.90;;;;;;5025274;28;20041;-69
2023/01/19 06:06:37;;;;;;;21.63;19.45;;;0.90;99.90;;;;;;5006528;28;20047;-70
2023/01/19 06:09:04;;;;;;;20.90;18.45;;;0.90;99.90;;;;;;5049215;28;20063;-70
2023/01/19 06:11:31;;;;;;;21.95;19.27;;;0.90;99.90;;;;;;5045932;28;20037;-69
2023/01/19 06:13:57;;;;;;;22.73;20.45;;;0.90;99.90;;;;;;5030675;28;20426;-69
2023/01/19 06:16:24;;;;;;;25.42;19.23;;;1.00;99.90;;;;;;5027911;28;20040;-69
2023/01/19 06:18:51;;;;;;;23.15;19.48;;;0.90;99.90;;;;;;5048383;28;20040;-70
2023/01/19 06:21:18;;;;;;;20.58;18.77;;;1.00;99.90;;;;;;5046866;28;20037;-68
2023/01/19 06:23:44;;;;;;;24.88;18.75;;;1.10;99.90;;;;;;5032991;28;20048;-68
2023/01/19 06:26:12;;;;;;;22.10;19.98;;;1.10;99.90;;;;;;5029509;28;20144;-68
2023/01/19 06:28:38;;;;;;;22.45;19.13;;;1.00;99.90;;;;;;5032933;28;20048;-67
2023/01/19 06:31:05;;;;;;;23.63;19.67;;;1.00;99.90;;;;;;5048398;28;20391;-68
2023/01/19 06:33:32;;;;;;;19.23;17.52;;;1.00;99.90;;;;;;5030314;28;20044;-67
2023/01/19 06:35:59;;;;;;;20.77;18.83;;;1.10;99.90;;;;;;5016668;28;20048;-68
2023/01/19 06:38:26;;;;;;;20.90;18.77;;;1.10;99.90;;;;;;5044884;28;20128;-68
2023/01/19 06:40:58;;;;;;;20.55;18.55;;;1.10;99.90;;;;;;5026079;28;20044;-67
2023/01/19 06:43:25;;;;;;;20.60;18.55;;;1.10;99.90;;;;;;5024605;28;20099;-66
2023/01/19 06:45:52;;;;;;;19.58;17.80;;;1.10;99.90;;;;;;5030774;28;20043;-68
2023/01/19 06:48:19;;;;;;;21.77;17.55;;;1.10;99.90;;;;;;5042030;28;20049;-67
2023/01/19 06:50:47;;;;;;;19.50;17.70;;;1.10;99.90;;;;;;5032128;28;20425;-68
2023/01/19 06:53:15;;;;;;;34.03;21.33;;;1.10;99.90;;;;;;5018169;28;20041;-68
2023/01/19 06:55:43;;;;;;;29.20;19.40;;;1.10;99.90;;;;;;5006097;28;20045;-67
2023/01/19 06:58:10;;;;;;;18.60;16.98;;;1.10;99.90;;;;;;5028706;28;20175;-68
2023/01/19 07:00:37;;;;;;;19.05;15.80;;;1.10;99.90;;;;;;5048189;28;20045;-68
2023/01/19 07:03:06;;;;;;;16.73;15.02;;;1.10;99.90;;;;;;5046923;28;20043;-68
2023/01/19 07:05:35;;;;;;;16.95;13.25;;;1.10;99.90;;;;;;5040919;28;20129;-69
2023/01/19 07:08:02;;;;;;;14.13;12.60;;;1.00;99.90;;;;;;5018984;28;20569;-70
2023/01/19 07:10:29;;;;;;;21.83;11.80;;;1.00;99.90;;;;;;5029203;28;20137;-69
2023/01/19 07:13:16;;;;;;;15.90;11.05;;;0.90;99.90;;;;;;5031478;28;20309;-69
2023/01/19 07:15:42;;;;;;;17.13;10.80;;;0.80;99.90;;;;;;5032779;28;20603;-69
2023/01/19 07:18:09;;;;;;;13.48;9.65;;;0.70;99.90;;;;;;5032685;28;20074;-68
2023/01/19 07:20:36;;;;;;;19.85;12.63;;;0.60;99.90;;;;;;5014144;28;20419;-69
2023/01/19 07:23:03;;;;;;;20.05;13.20;;;0.60;99.90;;;;;;5030284;28;20062;-70
2023/01/19 07:25:30;;;;;;;20.52;12.75;;;0.50;99.90;;;;;;5046702;28;20121;-68
2023/01/19 07:27:58;;;;;;;26.42;14.65;;;0.50;99.90;;;;;;5036868;28;20085;-68
2023/01/19 07:30:25;;;;;;;24.38;15.52;;;0.50;99.90;;;;;;5045027;28;20055;-69
2023/01/19 07:32:56;;;;;;;43.35;15.48;;;0.50;99.90;;;;;;5032238;28;20055;-70
2023/01/19 07:35:24;;;;;;;37.15;16.25;;;0.40;99.90;;;;;;5050991;28;20146;-68
2023/01/19 07:37:51;;;;;;;40.05;17.60;;;0.40;99.90;;;;;;5054583;28;20094;-68
2023/01/19 07:40:17;;;;;;;28.95;17.10;;;0.40;99.90;;;;;;5014294;28;20048;-69
2023/01/19 07:42:49;;;;;;;31.08;15.57;;;0.40;99.90;;;;;;5053333;28;20466;-69
2023/01/19 07:45:17;;;;;;;32.67;17.88;;;0.30;99.90;;;;;;5051544;28;20522;-69
2023/01/19 07:47:44;;;;;;;35.47;16.83;;;0.30;99.90;;;;;;5035151;28;20432;-69
2023/01/19 07:50:12;;;;;;;42.88;19.75;;;0.30;99.90;;;;;;5051347;28;20064;-68
2023/01/19 07:52:39;;;;;;;27.88;15.45;;;0.30;99.90;;;;;;5046987;28;20032;-68
2023/01/19 07:55:06;;;;;;;31.25;16.52;;;0.30;99.90;;;;;;5031468;28;20082;-68
2023/01/19 07:57:34;;;;;;;30.15;16.20;;;0.30;99.90;;;;;;5034512;28;20040;-68
2023/01/19 08:00:02;;;;;;;28.55;16.10;;;0.30;99.90;;;;;;5036559;28;20526;-69
2023/01/19 08:02:38;;;;;;;34.17;19.17;;;0.20;99.90;;;;;;5044274;28;20522;-69
2023/01/19 08:05:05;;;;;;;19.73;12.60;;;0.30;99.90;;;;;;5036684;28;20105;-69
2023/01/19 08:07:33;;;;;;;28.02;14.55;;;0.30;99.90;;;;;;5046986;28;20057;-68
2023/01/19 08:09:59;;;;;;;33.13;16.25;;;0.30;99.90;;;;;;5038865;28;20047;-68
2023/01/19 08:12:26;;;;;;;30.92;16.50;;;0.30;99.90;;;;;;5033129;28;20124;-69
2023/01/19 08:14:53;;;;;;;28.45;16.90;;;0.30;99.90;;;;;;5030684;28;20124;-68
2023/01/19 08:17:19;;;;;;;26.85;16.05;;;0.30;99.90;;;;;;5025899;28;20041;-70
2023/01/19 08:19:46;;;;;;;31.38;15.93;;;0.40;99.90;;;;;;5024597;28;20139;-72
2023/01/19 08:22:13;;;;;;;27.20;15.70;;;0.40;99.90;;;;;;5026167;28;20208;-71
2023/01/19 08:24:39;;;;;;;30.75;17.63;;;0.40;99.90;;;;;;5031771;28;20040;-72
2023/01/19 08:27:08;;;;;;;27.25;15.85;;;0.50;99.90;;;;;;5034874;28;20045;-73
2023/01/19 08:29:35;;;;;;;23.40;14.45;;;0.50;99.90;;;;;;5028061;28;20529;-72
2023/01/19 08:32:02;;;;;;;30.30;16.20;;;0.40;99.90;;;;;;5028074;28;20055;-72
2023/01/19 08:34:29;;;;;;;25.60;16.58;;;0.40;99.90;;;;;;5049032;28;20540;-72
2023/01/19 08:36:57;;;;;;;22.48;13.15;;;0.50;99.90;;;;;;5018091;28;20041;-72
2023/01/19 08:39:24;;;;;;;21.33;13.25;;;0.40;99.90;;;;;;5033352;28;20040;-72
2023/01/19 08:41:52;;;;;;;23.45;12.95;;;0.50;99.90;;;;;;5004199;28;20472;-72
2023/01/19 08:44:18;;;;;;;23.05;13.20;;;0.50;99.90;;;;;;5047066;28;20044;-71
2023/01/19 08:46:46;;;;;;;18.33;10.00;;;0.50;99.90;;;;;;5026662;28;20051;-72
2023/01/19 08:49:13;;;;;;;15.82;10.45;;;0.50;99.90;;;;;;5011923;28;20049;-72
2023/01/19 08:51:39;;;;;;;21.58;12.82;;;0.50;99.90;;;;;;5046001;28;20151;-72
2023/01/19 08:54:06;;;;;;;19.77;10.05;;;0.50;99.90;;;;;;5023319;28;20040;-72
2023/01/19 08:56:33;;;;;;;14.10;8.68;;;0.50;99.90;;;;;;5026616;28;20406;-73
2023/01/19 08:58:59;;;;;;;16.23;10.55;;;0.50;99.90;;;;;;5046796;28;20041;-72
2023/01/19 09:01:36;;;;;;;17.50;10.32;;;0.50;99.90;;;;;;5027717;28;20033;-72
2023/01/19 09:04:03;;;;;;;19.60;11.35;;;0.50;99.90;;;;;;5023431;28;20045;-73
2023/01/19 09:06:31;;;;;;;18.85;11.52;;;0.50;99.90;;;;;;5024087;28;20042;-72
2023/01/19 09:08:58;;;;;;;15.57;10.65;;;0.50;99.90;;;;;;5031766;28;20494;-72
2023/01/19 09:11:26;;;;;;;17.05;11.07;;;0.50;99.90;;;;;;5050631;28;20049;-72
2023/01/19 09:13:53;;;;;;;19.05;11.25;;;0.60;99.90;;;;;;5030495;28;20516;-74
2023/01/19 09:16:19;;;;;;;19.90;11.18;;;0.50;99.90;;;;;;5044786;28;20518;-72
2023/01/19 09:18:46;;;;;;;16.83;10.98;;;0.60;99.90;;;;;;5024333;28;20097;-72
2023/01/19 09:21:14;;;;;;;16.25;11.15;;;0.50;99.90;;;;;;5045010;28;20406;-71
2023/01/19 09:23:41;;;;;;;21.38;11.63;;;0.50;99.90;;;;;;5051276;28;20584;-71
2023/01/19 09:26:09;;;;;;;19.73;11.52;;;0.60;99.90;;;;;;5015044;28;20045;-71
2023/01/19 09:28:37;;;;;;;16.25;10.02;;;0.60;99.90;;;;;;5027243;28;20519;-72
2023/01/19 09:31:05;;;;;;;15.48;11.00;;;0.60;99.90;;;;;;5027784;28;20640;-72
2023/01/19 09:33:33;;;;;;;17.77;10.20;;;0.70;99.90;;;;;;5031076;28;20134;-72
2023/01/19 09:36:00;;;;;;;19.55;10.65;;;0.60;99.90;;;;;;5014785;28;20236;-73
2023/01/19 09:38:31;;;;;;;16.33;10.93;;;0.70;99.90;;;;;;5049766;28;20479;-71
2023/01/19 09:40:59;;;;;;;21.40;13.13;;;0.70;99.90;;;;;;5040881;28;20041;-71
2023/01/19 09:43:40;;;;;;;17.92;12.05;;;0.80;99.90;;;;;;5011144;28;20618;-71
2023/01/19 09:46:28;;;;;;;18.52;11.63;;;0.80;99.90;;;;;;5030933;28;20098;-72
2023/01/19 09:48:58;;;;;;;17.00;11.23;;;0.70;99.90;;;;;;5027105;28;20037;-72
2023/01/19 09:51:33;;;;;;;18.20;11.07;;;0.80;99.90;;;;;;5046372;28;20160;-73
2023/01/19 09:54:18;;;;;;;23.85;14.63;;;0.80;99.90;;;;;;5032390;28;20047;-73
2023/01/19 09:56:47;;;;;;;15.57;10.38;;;0.80;99.90;;;;;;5022820;28;20041;-72
2023/01/19 09:59:46;;;;;;;15.98;10.90;;;0.80;99.90;;;;;;5024372;28;20144;-71
2023/01/19 10:02:25;;;;;;;20.60;12.10;;;0.80;99.90;;;;;;5022956;28;20029;-73
2023/01/19 10:04:59;;;;;;;18.27;12.43;;;0.90;99.90;;;;;;5027905;28;20055;-71
2023/01/19 10:07:52;;;;;;;13.65;9.77;;;0.90;99.90;;;;;;5027150;28;20618;-71
2023/01/19 10:10:30;;;;;;;14.00;9.60;;;1.00;99.90;;;;;;5031079;28;20052;-72
2023/01/19 10:13:00;;;;;;;9.63;8.63;;;1.10;99.90;;;;;;5032102;28;20110;-73
2023/01/19 10:15:39;;;;;;;11.85;8.55;;;1.10;99.90;;;;;;5012702;28;20127;-72
2023/01/19 10:18:24;;;;;;;10.82;7.32;;;1.10;99.90;;;;;;5049967;28;20139;-73
2023/01/19 10:21:05;;;;;;;12.27;8.68;;;1.10;99.90;;;;;;5027125;28;20091;-73
2023/01/19 10:23:35;;;;;;;9.15;6.97;;;1.10;99.90;;;;;;5025791;28;20045;-73
2023/01/19 10:26:23;;;;;;;8.10;6.30;;;1.10;99.90;;;;;;5032077;28;20140;-74
2023/01/19 10:28:56;;;;;;;14.18;8.70;;;1.00;99.90;;;;;;5033375;28;20225;-73
2023/01/19 10:31:23;;;;;;;12.60;9.18;;;0.90;99.90;;;;;;5012439;28;20074;-74
2023/01/19 10:33:53;;;;;;;42.25;12.50;;;0.80;99.90;;;;;;5030242;28;20075;-74
2023/01/19 10:36:33;;;;;;;17.25;11.18;;;0.80;99.90;;;;;;5049757;28;20310;-73
2023/01/19 10:38:59;;;;;;;21.13;11.07;;;0.80;99.90;;;;;;5037538;28;20079;-75
2023/01/19 10:41:38;;;;;;;19.15;12.18;;;0.80;99.90;;;;;;5051299;28;20549;-74
2023/01/19 10:44:06;;;;;;;28.20;14.63;;;0.80;99.90;;;;;;5022370;28;20105;-73
2023/01/19 10:46:37;;;;;;;34.45;21.02;;;0.80;99.90;;;;;;5036097;28;20406;-73
2023/01/19 10:49:05;;;;;;;60.33;27.02;;;0.90;99.90;;;;;;5031729;28;20051;-72
2023/01/19 10:51:32;;;;;;;88.95;32.47;;;0.80;99.90;;;;;;5035011;28;20041;-75
2023/01/19 10:54:02;;;;;;;63.60;29.25;;;0.80;99.90;;;;;;5056989;28;20378;-73
2023/01/19 10:56:33;;;;;;;75.72;33.40;;;0.80;99.90;;;;;;5030823;28;20374;-73
2023/01/19 10:59:02;;;;;;;70.30;31.63;;;0.80;99.90;;;;;;5030785;28;20076;-73
2023/01/19 11:01:30;;;;;;;75.15;33.45;;;0.70;99.90;;;;;;5014097;28;20090;-73
2023/01/19 11:04:04;;;;;;;64.93;29.10;;;0.70;99.90;;;;;;5019081;28;20045;-73
2023/01/19 11:06:33;;;;;;;47.07;24.10;;;0.70;99.90;;;;;;5026633;28;20123;-74
2023/01/19 11:09:14;;;;;;;58.55;23.90;;;0.80;99.90;;;;;;5013031;28;20040;-73
2023/01/19 11:11:44;;;;;;;30.33;16.25;;;0.70;99.90;;;;;;5033945;28;20040;-74
2023/01/19 11:14:13;;;;;;;36.55;19.30;;;0.80;99.90;;;;;;5021294;28;20047;-73
2023/01/19 11:16:44;;;;;;;32.88;17.23;;;0.80;99.90;;;;;;5034451;28;20033;-73
2023/01/19 11:19:18;;;;;;;44.10;22.65;;;0.80;99.90;;;;;;5049286;28;20048;-72
2023/01/19 11:21:45;;;;;;;45.40;23.02;;;0.80;99.90;;;;;;5049191;28;20664;-72
2023/01/19 11:24:15;;;;;;;46.03;22.33;;;0.90;99.90;;;;;;5046718;28;20510;-72
2023/01/19 11:26:46;;;;;;;43.10;22.45;;;0.80;99.90;;;;;;5028145;28;20045;-72
2023/01/19 11:29:22;;;;;;;33.70;17.85;;;0.90;99.90;;;;;;5029544;28;20041;-72
2023/01/19 11:31:50;;;;;;;27.13;15.50;;;0.90;99.90;;;;;;5035778;28;20131;-72
2023/01/19 11:34:24;;;;;;;33.25;16.10;;;0.80;99.90;;;;;;5046263;28;20335;-72
2023/01/19 11:36:57;;;;;;;42.53;20.42;;;0.80;99.90;;;;;;5016675;28;20363;-73
2023/01/19 11:39:27;;;;;;;43.88;22.20;;;0.80;99.90;;;;;;5030156;28;20055;-72
2023/01/19 11:42:02;;;;;;;53.72;25.63;;;0.80;99.90;;;;;;5026111;28;20036;-73
2023/01/19 11:44:41;;;;;;;69.30;29.92;;;0.90;99.90;;;;;;5009747;28;20974;-72
2023/01/19 11:47:34;;;;;;;68.43;28.58;;;0.90;99.90;;;;;;5027392;28;20414;-72
2023/01/19 11:50:24;;;;;;;78.10;34.92;;;0.80;99.90;;;;;;5025957;28;20076;-72
2023/01/19 11:52:58;;;;;;;95.07;36.25;;;0.80;99.90;;;;;;5044371;28;20040;-72
2023/01/19 11:55:30;;;;;;;84.05;32.63;;;0.80;99.90;;;;;;5026292;28;20135;-73
2023/01/19 11:57:57;;;;;;;82.28;35.10;;;0.90;99.90;;;;;;5035465;28;20426;-72
2023/01/19 12:00:30;;;;;;;78.10;33.63;;;0.80;99.90;;;;;;5030402;28;20033;-71
2023/01/19 12:03:26;;;;;;;89.90;37.65;;;0.90;99.90;;;;;;5031290;28;20260;-73
2023/01/19 12:06:01;;;;;;;102.70;39.22;;;0.90;99.90;;;;;;5022144;28;20243;-72
2023/01/19 12:08:35;;;;;;;;;;;0.90;99.90;;;;;;5030144;28;20356;-73
2023/01/19 12:11:03;;;;;;;119.97;41.80;;;0.80;99.90;;;;;;5025265;28;19959;-72
2023/01/19 12:13:32;;;;;;;181.45;54.75;;;0.90;99.90;;;;;;5012664;28;20268;-72
2023/01/19 12:16:09;;;;;;;276.75;67.43;;;0.90;99.90;;;;;;5029142;28;20130;-72
2023/01/19 12:18:43;;;;;;;244.90;65.03;;;0.90;99.90;;;;;;5022008;28;20043;-72
2023/01/19 12:21:10;;;;;;;471.20;94.80;;;0.90;99.90;;;;;;5043878;28;20045;-71
2023/01/19 12:23:42;;;;;;;453.95;79.32;;;0.90;99.90;;;;;;5027906;28;20044;-72
2023/01/19 12:26:15;;;;;;;308.38;77.85;;;0.90;99.90;;;;;;5043935;28;20565;-71
2023/01/19 12:28:48;;;;;;;335.52;80.57;;;0.90;99.90;;;;;;5030208;28;20079;-74
2023/01/19 12:31:16;;;;;;;329.58;78.65;;;1.00;99.90;;;;;;5028108;28;20036;-72
2023/01/19 12:33:43;;;;;;;367.95;85.68;;;1.00;99.90;;;;;;5011355;28;20051;-71
2023/01/19 12:36:25;;;;;;;355.63;79.57;;;1.00;99.90;;;;;;5033130;28;20086;-72
2023/01/19 12:38:54;;;;;;;243.52;73.10;;;1.00;99.90;;;;;;5006626;28;20059;-72
2023/01/19 12:41:31;;;;;;;277.23;72.30;;;1.00;99.90;;;;;;5045412;28;20375;-72
2023/01/19 12:44:10;;;;;;;291.67;72.93;;;1.00;99.90;;;;;;5015692;28;20102;-72
2023/01/19 12:46:46;;;;;;;312.52;82.88;;;1.10;99.90;;;;;;5026748;28;20045;-72
2023/01/19 12:49:30;;;;;;;285.02;71.57;;;1.00;99.90;;;;;;5023833;28;20055;-72
2023/01/19 12:52:29;;;;;;;248.30;67.47;;;1.00;99.90;;;;;;5031431;28;20044;-72
2023/01/19 12:55:04;;;;;;;171.75;55.95;;;1.10;99.90;;;;;;5029319;28;20385;-71
2023/01/19 12:57:50;;;;;;;236.05;69.55;;;1.00;99.90;;;;;;5025197;28;20273;-71
2023/01/19 13:00:22;;;;;;;264.50;71.72;;;1.00;99.90;;;;;;5023501;28;20048;-71
2023/01/19 13:03:15;;;;;;;369.95;87.20;;;1.00;99.90;;;;;;5042996;28;20565;-71